Terminal Aerodrome Forecast
Issued by NWS Upton, NY

Current Version | Previous Version | Text Only | Print | Product List | Glossary On
Versions: 1 2 3 4 5 6 7 8 9 10 11 12 13 14 15 16 17 18 19 20 21 22 23 24 25 26
000 FTUS41 KOKX 211400 AAA TAFISP TAF AMD KISP 211432Z 2115/2212 11005KT P6SM SCT050 SCT080 SCT130 FM212300 VRB04KT 6SM -SHRA BKN060 FM220700 04008KT 6SM -SHRA BKN015=

USA.gov is the U.S. government's official web portal to all federal, state and local government web resources and services.